• Join FlightAware (Why Join?)
  • Login
  • US Flag 
09:20AM EDT


 

Airport Tracker/Info


-or-


 

Live Flight TrackerFlight Track Log ✈ SWA542 ✈ 10-Apr-2013 ✈ KMCO - KMDW

Flight Track Log - Related Links

Times and Time Zones

All times are in EDT time to prevent confusion due to time zone crossing. See the SWA542 flight status page for this flight to view local times or setup timezone preferences in your user account.

Time Position Orientation Groundspeed Altitude Reporting Facility
EDT Latitude Longitude Course Direction KTS MPH feet Rate Location/Type
07:30PM 28.4000 -81.3000 204° Southwest 158 182 900  Level Orlando TRACON
07:31PM 28.3667 -81.3167 204° Southwest 232 267 2,300 2,520 Climbing Orlando TRACON
07:32PM 28.3333 -81.3667 233° Southwest 224 258 5,500 2,880 Climbing Orlando TRACON
07:34PM 28.3200 -81.5344 265° West 243 280 11,500 2,220 Climbing Jacksonville Center
07:35PM 28.3483 -81.6356 288° West 299 344 12,700 1,920 Climbing Jacksonville Center
07:36PM 28.3869 -81.7531 291° West 343 395 15,400 2,700 Climbing Jacksonville Center
07:37PM 28.4275 -81.8658 292° West 379 436 18,200 2,760 Climbing Jacksonville Center
07:38PM 28.4703 -81.9858 292° West 394 453 21,000 2,160 Climbing Jacksonville Center
07:39PM 28.5128 -82.1083 292° West 406 467 22,600 1,800 Climbing Jacksonville Center
07:40PM 28.5553 -82.2403 290° West 424 488 24,700 2,040 Climbing Jacksonville Center
07:41PM 28.5975 -82.3700 290° West 434 499 26,700 1,860 Climbing Jacksonville Center
07:42PM 28.6772 -82.4714 312° West 434 499 28,500 1,980 Climbing Jacksonville Center
07:43PM 28.7756 -82.5278 333° Northwest 418 481 30,700 1,680 Climbing Jacksonville Center
07:44PM 28.8758 -82.5939 330° Northwest 418 481 31,900 600 Climbing Jacksonville Center
07:45PM 28.9783 -82.6553 332° Northwest 418 481 31,900  Level Jacksonville Center
07:46PM 29.0786 -82.7192 331° Northwest 418 481 31,900  Level Jacksonville Center
07:47PM 29.1789 -82.7831 331° Northwest 418 481 31,900  Level Jacksonville Center
07:48PM 29.2789 -82.8472 331° Northwest 418 481 31,900  Level Jacksonville Center
07:49PM 29.3792 -82.9117 331° Northwest 418 481 31,900  Level Jacksonville Center
07:50PM 29.4794 -82.9736 332° Northwest 418 481 31,900  Level Jacksonville Center
07:51PM 29.5878 -83.0431 331° Northwest 418 481 31,900  Level Jacksonville Center
07:52PM 29.6900 -83.0933 337° Northwest 412 474 31,900  Level Jacksonville Center
07:53PM 29.7986 -83.1439 338° Northwest 407 468 31,900  Level Jacksonville Center
07:54PM 29.9050 -83.1944 338° Northwest 412 474 31,900  Level Jacksonville Center
07:55PM 30.0281 -83.2500 339° North 418 481 31,900  Level Jacksonville Center
07:56PM 30.1364 -83.2986 339° North 418 481 31,900  Level Jacksonville Center
07:57PM 30.2469 -83.3494 338° Northwest 418 481 31,900  Level Jacksonville Center
07:58PM 30.3553 -83.4006 338° Northwest 418 481 31,900  Level Jacksonville Center
07:59PM 30.4617 -83.4517 338° Northwest 413 475 31,900  Level Jacksonville Center
08:00PM 30.5719 -83.5031 338° Northwest 418 481 31,900  Level Jacksonville Center
08:01PM 30.6783 -83.5544 337° Northwest 418 481 31,900  Level Jacksonville Center
08:02PM 30.7739 -83.6011 337° Northwest 413 475 32,000  Climbing Jacksonville Center
08:03PM 30.8822 -83.6528 338° Northwest 413 475 32,000  Level Jacksonville Center
08:04PM 30.9989 -83.7069 338° Northwest 413 475 32,000  Level Jacksonville Center
08:05PM 31.1092 -83.7611 337° Northwest 413 475 32,000  Level Jacksonville Center
08:06PM 31.2175 -83.8108 339° North 413 475 32,000  Level Jacksonville Center
08:07PM 31.3256 -83.8631 338° Northwest 413 475 32,000  Level Jacksonville Center
08:10PM 31.5881 -83.9781 340° North 415 478 32,000  Level Atlanta Center
08:11PM 31.7069 -84.0022 350° North 420 483 32,000  Level Atlanta Center
08:12PM 31.8239 -84.0267 350° North 425 489 32,000  Level Atlanta Center
08:13PM 31.9283 -84.0511 349° North 425 489 32,000  Level Atlanta Center
08:14PM 32.0450 -84.0756 350° North 430 495 32,000  Level Atlanta Center
08:15PM 32.1619 -84.1025 349° North 430 495 32,000  Level Atlanta Center
08:16PM 32.2747 -84.1272 349° North 425 489 32,000  Level Atlanta Center
08:17PM 32.3914 -84.1544 349° North 425 489 32,000 360 Level Atlanta Center
08:18PM 32.5106 -84.1817 349° North 425 489 32,800 960 Climbing Atlanta Center
08:19PM 32.6253 -84.2067 350° North 425 489 34,000 780 Climbing Atlanta Center
08:20PM 32.7419 -84.2339 349° North 430 495 34,400 480 Climbing Atlanta Center
08:21PM 32.8589 -84.2639 348° North 430 495 35,000 300 Climbing Atlanta Center
08:22PM 32.9861 -84.2939 349° North 430 495 35,000  Level Atlanta Center
08:23PM 33.1008 -84.3189 350° North 430 495 35,000  Level Atlanta Center
08:24PM 33.2200 -84.3442 350° North 430 495 35,000 300 Level Atlanta Center
08:25PM 33.3367 -84.3719 349° North 430 495 35,600 480 Climbing Atlanta Center
08:26PM 33.4472 -84.3972 349° North 418 481 36,000 180 Climbing Atlanta Center
08:27PM 33.5642 -84.4228 350° North 418 481 36,000  Level Atlanta Center
08:28PM 33.6558 -84.4531 345° North 407 468 36,000  Level Atlanta Center
08:29PM 33.7767 -84.5011 342° North 401 461 36,000  Level Atlanta Center
08:30PM 33.8703 -84.5642 331° Northwest 372 428 36,000  Level Atlanta Center
08:31PM 33.9744 -84.6250 334° Northwest 391 450 36,000  Level Atlanta Center
08:32PM 34.0786 -84.6783 337° Northwest 403 464 36,000  Level Atlanta Center
08:33PM 34.1950 -84.7394 337° Northwest 408 470 36,000  Level Atlanta Center
08:34PM 34.2992 -84.7931 337° Northwest 402 463 36,000  Level Atlanta Center
08:35PM 34.4011 -84.8494 335° Northwest 397 457 36,000  Level Atlanta Center
08:36PM 34.5031 -84.9058 335° Northwest 397 457 36,000  Level Atlanta Center
08:37PM 34.6028 -84.9575 337° Northwest 397 457 36,000  Level Atlanta Center
08:38PM 34.6900 -85.0089 334° Northwest 392 451 36,000  Level Atlanta Center
08:39PM 34.7939 -85.0656 336° Northwest 392 451 36,000  Level Atlanta Center
08:40PM 34.8975 -85.1431 328° Northwest 397 457 36,000  Level Atlanta Center
08:41PM 34.9781 -85.2403 315° West 397 457 36,000  Level Atlanta Center
08:42PM 35.0564 -85.3378 314° West 397 457 36,000  Level Atlanta Center
08:43PM 35.1808 -85.4897 315° West 397 457 36,000  Level Memphis Center
08:44PM 35.2664 -85.5992 314° West 397 457 36,000  Level Memphis Center
08:45PM 35.3342 -85.6817 315° West 397 457 36,000  Level Memphis Center
08:46PM 35.4108 -85.7742 315° West 392 451 36,000 360 Level Memphis Center
08:47PM 35.4872 -85.8694 315° West 392 451 36,800 960 Climbing Memphis Center
08:48PM 35.5592 -85.9600 314° West 382 440 38,000 600 Climbing Memphis Center
08:49PM 35.6419 -86.0578 316° Northwest 376 433 38,000  Level Memphis Center
08:50PM 35.7139 -86.1461 315° West 371 427 38,000  Level Memphis Center
08:51PM 35.7856 -86.2369 314° West 371 427 38,000  Level Memphis Center
08:52PM 35.8575 -86.3308 313° West 371 427 38,000  Level Memphis Center
08:53PM 35.9206 -86.4097 315° West 371 427 38,000  Level Memphis Center
08:54PM 35.9944 -86.5036 314° West 371 427 38,000  Level Memphis Center
08:55PM 36.0681 -86.5978 314° West 376 433 38,000  Level Memphis Center
08:56PM 36.1378 -86.6947 312° West 376 433 38,000  Level Memphis Center
08:57PM 36.1869 -86.8083 298° West 376 433 38,000  Level Memphis Center
08:58PM 36.2400 -86.9192 301° West 384 442 38,000  Level Memphis Center
08:59PM 36.2981 -87.0558 298° West 395 455 38,000  Level Memphis Center
09:00PM 36.3508 -87.1644 301° West 385 443 38,000  Level Memphis Center
09:01PM 36.4017 -87.2783 299° West 380 437 38,000  Level Memphis Center
09:02PM 36.4542 -87.3769 304° West 380 437 38,000  Level Memphis Center
09:03PM 36.5536 -87.4381 334° Northwest 383 441 38,000  Level Memphis Center
09:04PM 36.6569 -87.4911 338° Northwest 400 460 38,000  Level Memphis Center
09:05PM 36.7625 -87.5494 336° Northwest 407 468 38,000  Level Memphis Center
09:06PM 36.8658 -87.6028 338° Northwest 402 463 38,000  Level Memphis Center
09:07PM 36.9778 -87.6667 335° Northwest 402 463 38,000  Level Memphis Center
09:08PM 37.0831 -87.7228 337° Northwest 402 463 38,000  Level Memphis Center
09:09PM 37.1883 -87.7819 336° Northwest 408 470 38,000  Level Memphis Center
09:12PM 37.4078 -87.8961 338° Northwest 412 474 38,000  Level Kansas City Center
09:13PM 37.5139 -87.9556 336° Northwest 412 474 38,000  Level Kansas City Center
09:14PM 37.6425 -88.0261 337° Northwest 415 478 38,000  Level Kansas City Center
09:15PM 37.7522 -88.0889 336° Northwest 419 482 38,000  Level Indianapolis Center
09:16PM 37.8556 -88.1464 336° Northwest 417 480 38,000  Level Indianapolis Center
09:17PM 37.9617 -88.2050 336° Northwest 413 475 38,000  Level Kansas City Center
09:18PM 38.0675 -88.2642 336° Northwest 413 475 38,000  Level Kansas City Center
09:19PM 38.1744 -88.3253 336° Northwest 414 476 38,000  Level Kansas City Center
09:20PM 38.2886 -88.3781 340° North 431 496 38,000  Level Kansas City Center
09:21PM 38.4094 -88.4161 346° North 445 512 38,000 -480 Level Kansas City Center
09:22PM 38.5286 -88.4550 346° North 442 509 37,100 -480 Descending Kansas City Center
09:23PM 38.6469 -88.4936 346° North 440 506 37,000 -60 Descending Kansas City Center
09:24PM 38.7653 -88.5325 346° North 436 502 37,000  Level Kansas City Center
09:25PM 38.8836 -88.5719 345° North 437 503 37,000  Level Kansas City Center
09:26PM 39.0033 -88.6106 346° North 438 504 37,000  Level Kansas City Center
09:27PM 39.1447 -88.6225 356° North 458 527 37,000 -480 Level Kansas City Center
09:28PM 39.2728 -88.6297 358° North 463 533 36,100 -1,680 Descending Kansas City Center
09:29PM 39.4008 -88.6383 357° North 462 532 33,700 -2,280 Descending Kansas City Center
09:30PM 39.5206 -88.6453 357° North 459 528 31,500 -2,160 Descending Kansas City Center
09:31PM 39.6417 -88.6428 North 449 517 29,400 -2,040 Descending Kansas City Center
09:32PM 39.7592 -88.5836 21° North 454 522 27,400 -2,040 Descending Kansas City Center
09:33PM 39.8761 -88.5269 20° North 450 518 25,400 -960 Descending Kansas City Center
09:35PM 40.1272 -88.4414 15° North 433 498 24,600 -480 Descending Kansas City Center
09:35PM 40.1467 -88.4492 343° North 411 473 24,400 -480 Descending Chicago Center
09:36PM 40.2633 -88.4992 342° North 403 464 24,000 -540 Descending Chicago Center
09:37PM 40.3592 -88.5392 342° North 399 459 23,400 -840 Descending Chicago Center
09:38PM 40.4742 -88.5869 342° North 399 459 22,300 -1,080 Descending Chicago Center
09:39PM 40.5819 -88.5961 356° North 394 453 21,300 -1,500 Descending Chicago Center
09:40PM 40.6933 -88.5775 North 402 463 19,300 -2,100 Descending Chicago Center
09:41PM 40.8069 -88.5606 North 410 472 17,100 -2,100 Descending Chicago Center
09:42PM 40.9364 -88.5197 13° North 399 459 15,000 -1,800 Descending Chicago Center
09:43PM 41.0411 -88.4847 14° North 387 445 13,500 -2,160 Descending Chicago Center
09:44PM 41.1422 -88.4522 14° North 378 435 10,700 -2,160 Descending Chicago Center
09:45PM 41.2381 -88.4203 14° North 362 417 9,100 -1,680 Descending Chicago Center
09:46PM 41.3256 -88.3914 14° North 334 384 7,300 -1,440 Descending Chicago Center
09:48PM 41.3886 -88.3297 36° Northeast 297 342 6,200 -1,080 Descending Chicago Center
09:49PM 41.4225 -88.2342 65° Northeast 286 329 5,200 -1,020 Descending Chicago Center
09:50PM 41.4656 -88.1525 55° Northeast 276 318 4,200 -840 Descending Chicago Center
09:51PM 41.5206 -88.0825 44° Northeast 271 312 3,500 -660 Descending Chicago Center
09:52PM 41.5736 -88.0189 42° Northeast 263 303 2,900 -300 Descending Chicago Center
09:53PM 41.6119 -87.9708 43° Northeast 216 249 3,000  Climbing Chicago Center
09:54PM 41.6511 -87.9217 43° Northeast 179 206 3,000  Level Chicago Center
09:55PM 41.6825 -87.8814 44° Northeast 166 191 3,000 -180 Level Chicago Center
09:55PM 41.7000 -87.8500 53° Northeast 160 184 2,700 -660 Descending Chicago TRACON
09:56PM 41.7333 -87.8167 37° Northeast 134 154 1,900 -780 Descending Chicago TRACON
09:57PM 41.7667 -87.7833 37° Northeast 125 144 1,200 -720 Descending Chicago TRACON